Blue Hill, Arkansas
Current Conditions -  °F | °C
As of 7:58 AM on Monday 20 Oct 2014 (Local Time) from KLRF Reporting Station
Few Clouds Few Clouds  
Wind Chill: 48°   Ceiling: Unl
Heat Index: 48°   Visibility: 10mi
Dew Point: 46°   Wind: 0mph
Humidity: 94%   Direction: NA
Pressure: 30.1"   Gusts: NA
Location:  34.868°N, 92.3217°W
Report Text: KLRF 201258Z AUTO 00000KT 10SM FEW095 09/08 A3010 RMK AO2 SLP196 T00890080
Loading
Personal Weather Stations






























Interactive Weather Map
Tropical Storm Tracking
New forecast layout! Learn more

10-Day Weather Forecast

Advertisements
Track Severe Weather on mobile